MSC Lea — 9HA2639 — position and weather

sailwx.info

Track history (hours):
 
Tides and Currents Weather Stations Pressure Air Temp Water Temp Dewpoint Dewpoint Depression Visibility Wind Speed Wind Dir Waves Ship Positions

MSC Lea

Last reported at 2016-Dec-04 13:34 UTC. Time now 2016-Dec-04 14:12 UTC.
Position N 32°49' E 035°01'.

Length 217 m; draft 9.4 m.

Type: Ship (hazmat cat A). MMSI: 215101000.

Date/timePositionNaut miles runAvg speedWind from/ knotsBaromVisibWave heightAir tempDewpointWater temp
2016-Dec-04 13:34N 32°49' E 035°01'0 0.4
2016-Dec-04 12:33N 32°49' E 035°01'0 0.0
2016-Dec-04 11:33N 32°49' E 035°01'0 0.0
2016-Dec-04 10:34N 32°49' E 035°01'0 0.0
2016-Dec-04 09:34N 32°49' E 035°01'0 0.0
2016-Dec-04 07:33N 32°49' E 035°01'0 0.0
2016-Dec-04 06:34N 32°49' E 035°01'0 0.0
2016-Dec-04 05:34N 32°49' E 035°01'0 0.0
2016-Dec-04 04:33N 32°49' E 035°01'1 1.4
2016-Dec-04 03:33N 32°51' E 035°01'6 6.2
2016-Dec-04 02:34N 32°53' E 034°54'1614.7
2016-Dec-04 01:30N 32°57' E 034°36'1717.1
2016-Dec-04 00:31N 32°60' E 034°17'  
2016-Nov-30 02:15N 44°37' E 013°02'1014.1
2016-Nov-30 01:33N 44°46' E 012°57'1414.2
2016-Nov-30 00:33N 44°59' E 012°47'1413.9
2016-Nov-29 23:34N 45°09' E 012°35'1312.9
2016-Nov-29 22:34N 45°19' E 012°23'8 7.7
2016-Nov-29 21:34N 45°25' E 012°16'2 2.3
2016-Nov-29 20:33N 45°27' E 012°15'0 0.0
2016-Nov-29 19:33N 45°27' E 012°15'0 0.0
2016-Nov-29 18:31N 45°27' E 012°15'0 0.0
2016-Nov-29 17:32N 45°27' E 012°15'0 0.0
2016-Nov-29 16:32N 45°27' E 012°15'0 0.0
2016-Nov-29 15:33N 45°27' E 012°15'0 0.0
2016-Nov-29 14:31N 45°27' E 012°15'0 0.0
2016-Nov-29 13:32N 45°27' E 012°15'0 0.0
2016-Nov-29 12:32N 45°27' E 012°15'0 0.0
2016-Nov-29 11:33N 45°27' E 012°15'0 0.0
2016-Nov-29 10:33N 45°27' E 012°15'0 0.0
2016-Nov-29 09:31N 45°27' E 012°15'0 0.0
2016-Nov-29 08:32N 45°27' E 012°15'0 0.0
2016-Nov-29 07:32N 45°27' E 012°15'1 0.5
2016-Nov-29 06:33N 45°27' E 012°16'8 7.7
2016-Nov-29 05:34N 45°20' E 012°20'1413.7
2016-Nov-29 04:33N 45°14' E 012°38'1918.6
2016-Nov-29 03:34N 44°59' E 012°53'1818.2
2016-Nov-29 02:33N 44°42' E 012°45'1616.3
2016-Nov-29 01:33N 44°30' E 012°29'1 0.1
2016-Nov-28 05:32N 44°30' E 012°30'0 0.0
2016-Nov-27 22:17N 44°30' E 012°30'0 0.0
2016-Nov-27 21:24N 44°30' E 012°30'0 0.1
2016-Nov-27 20:27N 44°30' E 012°30'0 0.4
2016-Nov-27 19:34N 44°30' E 012°30'1311.1
2016-Nov-27 18:25N 44°38' E 012°43'1214.1
2016-Nov-27 17:34N 44°49' E 012°51'1414.2
2016-Nov-27 16:34N 45°02' E 012°59'1413.9
2016-Nov-27 15:33N 45°16' E 013°01'1313.3
2016-Nov-27 14:33N 45°28' E 013°08'1414.1
2016-Nov-27 13:33N 45°35' E 013°25'1312.8
2016-Nov-27 12:33N 45°38' E 013°43'2 1.7
2016-Nov-27 11:27N 45°38' E 013°46'0 0.0
2016-Nov-27 10:33N 45°38' E 013°46'0 0.0
2016-Nov-27 09:31N 45°38' E 013°46'0 0.0
2016-Nov-27 08:32N 45°38' E 013°46'0 0.0
2016-Nov-27 07:32N 45°38' E 013°46'0 0.0
2016-Nov-27 06:33N 45°38' E 013°46'1 0.5
2016-Nov-27 05:33N 45°38' E 013°45'3 2.9
2016-Nov-27 04:30N 45°40' E 013°42'0 0.1
2016-Nov-27 03:33N 45°40' E 013°42'0 0.0
2016-Nov-27 02:31N 45°40' E 013°42'0 0.0
2016-Nov-27 01:29N 45°40' E 013°42'0 0.0
2016-Nov-27 00:32N 45°40' E 013°42'0 0.1
2016-Nov-26 23:27N 45°40' E 013°42'0 0.1
2016-Nov-26 22:31N 45°40' E 013°42'0 0.0
2016-Nov-26 21:31N 45°40' E 013°42'0 0.1
2016-Nov-26 20:32N 45°40' E 013°42'0 0.1
2016-Nov-26 19:33N 45°40' E 013°42'6 6.3
2016-Nov-26 18:33N 45°34' E 013°42'2 1.6
2016-Nov-26 17:33N 45°33' E 013°44'0 0.0
2016-Nov-26 16:31N 45°33' E 013°44'0 0.0
2016-Nov-26 15:32N 45°33' E 013°44'0 0.0
2016-Nov-26 14:32N 45°33' E 013°44'0 0.0
2016-Nov-26 13:30N 45°33' E 013°44'0 0.0
2016-Nov-26 12:31N 45°33' E 013°44'0 0.0
2016-Nov-26 11:31N 45°33' E 013°44'0 0.0
2016-Nov-26 10:32N 45°33' E 013°44'0 0.0
2016-Nov-26 09:30N 45°33' E 013°44'0 0.0
2016-Nov-26 08:33N 45°33' E 013°44'0 0.0
2016-Nov-26 07:31N 45°33' E 013°44'0 0.0
2016-Nov-26 06:32N 45°33' E 013°44'0 0.0
2016-Nov-26 05:29N 45°33' E 013°44'0 0.3
2016-Nov-26 04:33N 45°33' E 013°44'6 5.8
2016-Nov-26 03:33N 45°35' E 013°36'1110.6
2016-Nov-26 02:33N 45°30' E 013°22'1212.6
2016-Nov-26 01:33N 45°19' E 013°13'1313.5
2016-Nov-26 00:33N 45°06' E 013°17'1313.3
2016-Nov-25 23:33N 44°54' E 013°25'1313.4
2016-Nov-25 22:33N 44°43' E 013°36'1313.5
2016-Nov-25 21:33N 44°32' E 013°46'1313.5
2016-Nov-25 20:33N 44°21' E 013°57'  
Track history (hours):
 
Tides and Currents Weather Stations Pressure Air Temp Water Temp Dewpoint Dewpoint Depression Visibility Wind Speed Wind Dir Waves Ship Positions

MSC Lea

Last reported at 2016-Dec-04 13:34 UTC. Time now 2016-Dec-04 14:12 UTC.
Position N 32°49' E 035°01'.

Length 217 m; draft 9.4 m.

Type: Ship (hazmat cat A). MMSI: 215101000.

Date/timePositionNaut miles runAvg speedWind from/ knotsBaromVisibWave heightAir tempDewpointWater temp
2016-Dec-04 13:34N 32°49' E 035°01'0 0.4
2016-Dec-04 12:33N 32°49' E 035°01'0 0.0
2016-Dec-04 11:33N 32°49' E 035°01'0 0.0
2016-Dec-04 10:34N 32°49' E 035°01'0 0.0
2016-Dec-04 09:34N 32°49' E 035°01'0 0.0
2016-Dec-04 07:33N 32°49' E 035°01'0 0.0
2016-Dec-04 06:34N 32°49' E 035°01'0 0.0
2016-Dec-04 05:34N 32°49' E 035°01'0 0.0
2016-Dec-04 04:33N 32°49' E 035°01'1 1.4
2016-Dec-04 03:33N 32°51' E 035°01'6 6.2
2016-Dec-04 02:34N 32°53' E 034°54'1614.7
2016-Dec-04 01:30N 32°57' E 034°36'1717.1
2016-Dec-04 00:31N 32°60' E 034°17'  
2016-Nov-30 02:15N 44°37' E 013°02'1014.1
2016-Nov-30 01:33N 44°46' E 012°57'1414.2
2016-Nov-30 00:33N 44°59' E 012°47'1413.9
2016-Nov-29 23:34N 45°09' E 012°35'1312.9
2016-Nov-29 22:34N 45°19' E 012°23'8 7.7
2016-Nov-29 21:34N 45°25' E 012°16'2 2.3
2016-Nov-29 20:33N 45°27' E 012°15'0 0.0
2016-Nov-29 19:33N 45°27' E 012°15'0 0.0
2016-Nov-29 18:31N 45°27' E 012°15'0 0.0
2016-Nov-29 17:32N 45°27' E 012°15'0 0.0
2016-Nov-29 16:32N 45°27' E 012°15'0 0.0
2016-Nov-29 15:33N 45°27' E 012°15'0 0.0
2016-Nov-29 14:31N 45°27' E 012°15'0 0.0
2016-Nov-29 13:32N 45°27' E 012°15'0 0.0
2016-Nov-29 12:32N 45°27' E 012°15'0 0.0
2016-Nov-29 11:33N 45°27' E 012°15'0 0.0
2016-Nov-29 10:33N 45°27' E 012°15'0 0.0
2016-Nov-29 09:31N 45°27' E 012°15'0 0.0
2016-Nov-29 08:32N 45°27' E 012°15'0 0.0
2016-Nov-29 07:32N 45°27' E 012°15'1 0.5
2016-Nov-29 06:33N 45°27' E 012°16'8 7.7
2016-Nov-29 05:34N 45°20' E 012°20'1413.7
2016-Nov-29 04:33N 45°14' E 012°38'1918.6
2016-Nov-29 03:34N 44°59' E 012°53'1818.2
2016-Nov-29 02:33N 44°42' E 012°45'1616.3
2016-Nov-29 01:33N 44°30' E 012°29'1 0.1
2016-Nov-28 05:32N 44°30' E 012°30'0 0.0
2016-Nov-27 22:17N 44°30' E 012°30'0 0.0
2016-Nov-27 21:24N 44°30' E 012°30'0 0.1
2016-Nov-27 20:27N 44°30' E 012°30'0 0.4
2016-Nov-27 19:34N 44°30' E 012°30'1311.1
2016-Nov-27 18:25N 44°38' E 012°43'1214.1
2016-Nov-27 17:34N 44°49' E 012°51'1414.2
2016-Nov-27 16:34N 45°02' E 012°59'1413.9
2016-Nov-27 15:33N 45°16' E 013°01'1313.3
2016-Nov-27 14:33N 45°28' E 013°08'1414.1
2016-Nov-27 13:33N 45°35' E 013°25'1312.8
2016-Nov-27 12:33N 45°38' E 013°43'2 1.7
2016-Nov-27 11:27N 45°38' E 013°46'0 0.0
2016-Nov-27 10:33N 45°38' E 013°46'0 0.0
2016-Nov-27 09:31N 45°38' E 013°46'0 0.0
2016-Nov-27 08:32N 45°38' E 013°46'0 0.0
2016-Nov-27 07:32N 45°38' E 013°46'0 0.0
2016-Nov-27 06:33N 45°38' E 013°46'1 0.5
2016-Nov-27 05:33N 45°38' E 013°45'3 2.9
2016-Nov-27 04:30N 45°40' E 013°42'0 0.1
2016-Nov-27 03:33N 45°40' E 013°42'0 0.0
2016-Nov-27 02:31N 45°40' E 013°42'0 0.0
2016-Nov-27 01:29N 45°40' E 013°42'0 0.0
2016-Nov-27 00:32N 45°40' E 013°42'0 0.1
2016-Nov-26 23:27N 45°40' E 013°42'0 0.1
2016-Nov-26 22:31N 45°40' E 013°42'0 0.0
2016-Nov-26 21:31N 45°40' E 013°42'0 0.1
2016-Nov-26 20:32N 45°40' E 013°42'0 0.1
2016-Nov-26 19:33N 45°40' E 013°42'6 6.3
2016-Nov-26 18:33N 45°34' E 013°42'2 1.6
2016-Nov-26 17:33N 45°33' E 013°44'0 0.0
2016-Nov-26 16:31N 45°33' E 013°44'0 0.0
2016-Nov-26 15:32N 45°33' E 013°44'0 0.0
2016-Nov-26 14:32N 45°33' E 013°44'0 0.0
2016-Nov-26 13:30N 45°33' E 013°44'0 0.0
2016-Nov-26 12:31N 45°33' E 013°44'0 0.0
2016-Nov-26 11:31N 45°33' E 013°44'0 0.0
2016-Nov-26 10:32N 45°33' E 013°44'0 0.0
2016-Nov-26 09:30N 45°33' E 013°44'0 0.0
2016-Nov-26 08:33N 45°33' E 013°44'0 0.0
2016-Nov-26 07:31N 45°33' E 013°44'0 0.0
2016-Nov-26 06:32N 45°33' E 013°44'0 0.0
2016-Nov-26 05:29N 45°33' E 013°44'0 0.3
2016-Nov-26 04:33N 45°33' E 013°44'6 5.8
2016-Nov-26 03:33N 45°35' E 013°36'1110.6
2016-Nov-26 02:33N 45°30' E 013°22'1212.6
2016-Nov-26 01:33N 45°19' E 013°13'1313.5
2016-Nov-26 00:33N 45°06' E 013°17'1313.3
2016-Nov-25 23:33N 44°54' E 013°25'1313.4
2016-Nov-25 22:33N 44°43' E 013°36'1313.5
2016-Nov-25 21:33N 44°32' E 013°46'1313.5
2016-Nov-25 20:33N 44°21' E 013°57'  

Dump ship's entire track history